createdAt,value
2023-03-19T00:00:43.809Z,5.36
2023-03-19T00:03:10.924Z,5.35
2023-03-19T00:05:37.972Z,5.33
2023-03-19T00:08:05.590Z,5.34
2023-03-19T00:10:32.612Z,5.32
2023-03-19T00:12:59.590Z,5.31
2023-03-19T00:15:26.542Z,5.32
2023-03-19T00:17:54.214Z,5.29
2023-03-19T00:20:22.174Z,5.26
2023-03-19T00:22:49.201Z,5.28
2023-03-19T00:25:16.213Z,5.23
2023-03-19T00:27:44.394Z,5.20
2023-03-19T00:30:12.268Z,5.16
2023-03-19T00:32:40.427Z,5.11
2023-03-19T00:35:08.697Z,5.08
2023-03-19T00:37:37.321Z,5.07
2023-03-19T00:40:05.798Z,5.01
2023-03-19T00:42:34.286Z,4.99
2023-03-19T00:45:01.245Z,4.93
2023-03-19T00:47:28.211Z,4.91
2023-03-19T00:49:56.162Z,4.90
2023-03-19T00:52:23.059Z,4.90
2023-03-19T00:54:50.957Z,4.87
2023-03-19T00:57:19.199Z,4.84
2023-03-19T00:59:46.281Z,4.83
2023-03-19T01:02:13.251Z,4.76
2023-03-19T01:04:40.342Z,4.75
2023-03-19T01:07:07.542Z,4.70
2023-03-19T01:09:35.926Z,4.67
2023-03-19T01:12:04.795Z,4.65
2023-03-19T01:14:32.548Z,4.69
2023-03-19T01:17:00.086Z,4.65
2023-03-19T01:19:27.341Z,4.62
2023-03-19T01:21:54.363Z,4.63
2023-03-19T01:24:22.946Z,4.58
2023-03-19T01:26:53.574Z,4.63
2023-03-19T01:29:31.994Z,4.61
2023-03-19T01:32:06.099Z,4.61
2023-03-19T01:34:59.252Z,4.60
2023-03-19T01:37:26.463Z,4.59
2023-03-19T01:39:53.680Z,4.59
2023-03-19T01:42:20.708Z,4.59
2023-03-19T01:45:40.850Z,4.55
2023-03-19T01:48:41.611Z,4.56
2023-03-19T01:51:17.275Z,4.54
2023-03-19T01:54:01.235Z,4.53
2023-03-19T01:56:38.881Z,4.55
2023-03-19T01:59:38.824Z,4.51
2023-03-19T02:02:32.072Z,4.49
2023-03-19T02:05:11.312Z,4.48
2023-03-19T02:07:41.404Z,4.50
2023-03-19T02:10:15.098Z,4.46
2023-03-19T02:12:42.415Z,4.47
2023-03-19T02:15:09.985Z,4.48
2023-03-19T02:17:37.349Z,4.46
2023-03-19T02:20:14.978Z,4.47
2023-03-19T02:22:55.387Z,4.44
2023-03-19T02:25:35.291Z,4.46
2023-03-19T02:28:03.446Z,4.45
2023-03-19T02:30:34.150Z,4.46
2023-03-19T02:33:06.819Z,4.47
2023-03-19T02:35:35.717Z,4.50
2023-03-19T02:38:05.003Z,4.48
2023-03-19T02:40:38.463Z,4.47
2023-03-19T02:43:05.447Z,4.49
2023-03-19T02:45:32.686Z,4.47
2023-03-19T02:48:00.364Z,4.48
2023-03-19T02:50:27.523Z,4.51
2023-03-19T02:52:54.657Z,4.51
2023-03-19T02:55:22.155Z,4.48
2023-03-19T02:57:49.383Z,4.45
2023-03-19T03:00:18.703Z,4.46
2023-03-19T03:02:45.972Z,4.42
2023-03-19T03:05:14.360Z,4.40
2023-03-19T03:07:43.786Z,4.40
2023-03-19T03:10:11.841Z,4.36
2023-03-19T03:12:38.897Z,4.34
2023-03-19T03:15:08.464Z,4.36
2023-03-19T03:17:40.694Z,4.32
2023-03-19T03:20:11.580Z,4.32
2023-03-19T03:22:39.930Z,4.30
2023-03-19T03:25:07.696Z,4.32
2023-03-19T03:27:34.834Z,4.28
2023-03-19T03:30:01.749Z,4.25
2023-03-19T03:32:28.683Z,4.21
2023-03-19T03:34:55.750Z,4.18
2023-03-19T03:37:22.831Z,4.13
2023-03-19T03:39:49.832Z,4.12
2023-03-19T03:42:19.315Z,4.08
2023-03-19T03:44:47.054Z,4.07
2023-03-19T03:47:14.342Z,4.03
2023-03-19T03:49:41.821Z,4.01
2023-03-19T03:52:09.244Z,4.03
2023-03-19T03:54:36.327Z,3.98
2023-03-19T03:57:03.838Z,3.98
2023-03-19T03:59:31.682Z,3.97
2023-03-19T04:01:58.886Z,3.94
2023-03-19T04:04:26.462Z,3.93
2023-03-19T04:06:53.504Z,3.94
2023-03-19T04:09:31.279Z,3.90
2023-03-19T04:11:59.164Z,3.88
2023-03-19T04:14:27.072Z,3.87
2023-03-19T04:16:54.381Z,3.87
2023-03-19T04:19:21.404Z,3.83
2023-03-19T04:21:48.381Z,3.84
2023-03-19T04:24:16.436Z,3.84
2023-03-19T04:26:43.945Z,3.81
2023-03-19T04:29:10.960Z,3.82
2023-03-19T04:31:38.321Z,3.80
2023-03-19T04:34:05.888Z,3.82
2023-03-19T04:36:33.120Z,3.80
2023-03-19T04:39:00.300Z,3.81
2023-03-19T04:41:27.586Z,3.80
2023-03-19T04:44:13.581Z,3.78
2023-03-19T04:46:42.260Z,3.80
2023-03-19T04:49:09.286Z,3.81
2023-03-19T04:51:36.464Z,3.80
2023-03-19T04:54:03.811Z,3.78
2023-03-19T04:56:31.644Z,3.77
2023-03-19T04:58:58.924Z,3.77
2023-03-19T05:01:26.148Z,3.78
2023-03-19T05:04:00.242Z,3.76
2023-03-19T05:06:28.139Z,3.78
2023-03-19T05:08:55.697Z,3.78
2023-03-19T05:11:23.927Z,3.81
2023-03-19T05:14:05.464Z,3.81
2023-03-19T05:16:45.384Z,3.82
2023-03-19T05:19:12.456Z,3.83
2023-03-19T05:21:40.803Z,3.84
2023-03-19T05:24:08.064Z,3.85
2023-03-19T05:26:38.022Z,3.86
2023-03-19T05:29:20.160Z,3.92
2023-03-19T05:32:10.544Z,3.95
2023-03-19T05:34:38.990Z,3.97
2023-03-19T05:37:06.554Z,4.04
2023-03-19T05:39:33.996Z,4.08
2023-03-19T05:42:05.161Z,4.11
2023-03-19T05:44:33.096Z,4.19
2023-03-19T05:47:05.876Z,4.27
2023-03-19T05:49:36.889Z,4.37
2023-03-19T05:52:04.888Z,4.42
2023-03-19T05:54:32.421Z,4.52
2023-03-19T05:57:28.312Z,4.65
2023-03-19T06:00:17.919Z,4.75
2023-03-19T06:02:46.924Z,4.89
2023-03-19T06:05:34.628Z,5.04
2023-03-19T06:08:17.081Z,5.17
2023-03-19T06:11:02.019Z,5.28
2023-03-19T06:13:29.025Z,5.43
2023-03-19T06:16:00.055Z,5.54
2023-03-19T06:18:40.261Z,5.69
2023-03-19T06:21:10.795Z,5.82
2023-03-19T06:23:38.050Z,5.94
2023-03-19T06:26:07.057Z,6.08
2023-03-19T06:28:49.191Z,6.20
2023-03-19T06:31:17.435Z,6.34
2023-03-19T06:34:05.039Z,6.46
2023-03-19T06:36:41.586Z,6.55
2023-03-19T06:39:11.284Z,6.69
2023-03-19T06:41:38.319Z,6.76
2023-03-19T06:44:13.232Z,6.86
2023-03-19T06:46:40.645Z,6.94
2023-03-19T06:49:07.856Z,7.03
2023-03-19T06:51:34.775Z,7.10
2023-03-19T06:54:01.929Z,7.21
2023-03-19T06:56:29.438Z,7.27
2023-03-19T06:58:56.604Z,7.35
2023-03-19T07:01:23.910Z,7.40
2023-03-19T07:03:51.079Z,7.48
2023-03-19T07:06:18.115Z,7.52
2023-03-19T07:08:46.684Z,7.63
2023-03-19T07:11:14.356Z,7.73
2023-03-19T07:13:41.511Z,7.79
2023-03-19T07:16:08.883Z,7.85
2023-03-19T07:18:35.905Z,7.94
2023-03-19T07:21:02.971Z,8.02
2023-03-19T07:23:30.004Z,8.13
2023-03-19T07:25:56.926Z,8.20
2023-03-19T07:28:24.173Z,8.31
2023-03-19T07:30:54.928Z,8.42
2023-03-19T07:33:22.135Z,8.49
2023-03-19T07:35:49.502Z,8.58
2023-03-19T07:38:16.598Z,8.68
2023-03-19T07:40:54.878Z,8.76
2023-03-19T07:43:28.128Z,8.83
2023-03-19T07:45:55.030Z,8.87
2023-03-19T07:48:22.042Z,8.95
2023-03-19T07:50:51.837Z,9.03
2023-03-19T07:53:18.929Z,9.14
2023-03-19T07:55:46.036Z,9.21
2023-03-19T07:58:13.320Z,9.37
2023-03-19T08:00:40.414Z,9.49
2023-03-19T08:03:07.474Z,9.64
2023-03-19T08:05:34.555Z,9.82
2023-03-19T08:08:01.705Z,9.98
2023-03-19T08:10:28.762Z,10.14
2023-03-19T08:12:55.927Z,10.32
2023-03-19T08:15:22.788Z,10.48
2023-03-19T08:17:49.936Z,10.63
2023-03-19T08:20:17.391Z,10.74
2023-03-19T08:22:44.416Z,10.84
2023-03-19T08:25:11.799Z,10.91
2023-03-19T08:27:38.974Z,10.99
2023-03-19T08:30:08.367Z,11.10
2023-03-19T08:32:36.282Z,11.19
2023-03-19T08:35:04.748Z,11.28
2023-03-19T08:37:31.736Z,11.40
2023-03-19T08:39:58.889Z,11.48
2023-03-19T08:42:25.964Z,11.55
2023-03-19T08:44:52.868Z,11.63
2023-03-19T08:47:20.543Z,11.72
2023-03-19T08:49:47.405Z,11.78
2023-03-19T08:52:14.553Z,11.85
2023-03-19T08:54:41.485Z,11.93
2023-03-19T08:57:08.467Z,12.00
2023-03-19T08:59:35.608Z,12.10
2023-03-19T09:02:02.610Z,12.17
2023-03-19T09:04:29.683Z,12.24
2023-03-19T09:06:57.061Z,12.33
2023-03-19T09:09:24.825Z,12.41
2023-03-19T09:11:51.809Z,12.51
2023-03-19T09:14:20.520Z,12.62
2023-03-19T09:16:47.582Z,12.67
2023-03-19T09:19:15.303Z,12.77
2023-03-19T09:21:42.573Z,12.83
2023-03-19T09:24:09.717Z,12.89
2023-03-19T09:26:36.733Z,12.93
2023-03-19T09:29:04.937Z,12.97
2023-03-19T09:31:32.041Z,12.98
2023-03-19T09:33:59.034Z,13.03
2023-03-19T09:36:26.561Z,13.06
2023-03-19T09:38:53.547Z,13.09
2023-03-19T09:41:52.087Z,13.13
2023-03-19T09:44:33.857Z,13.16
2023-03-19T09:47:29.144Z,13.22
2023-03-19T09:50:13.309Z,13.33
2023-03-19T09:52:49.452Z,13.42
2023-03-19T09:55:37.263Z,13.58
2023-03-19T09:58:17.849Z,13.74
2023-03-19T10:00:52.277Z,13.87
2023-03-19T10:03:22.061Z,14.02
2023-03-19T10:06:08.527Z,14.16
2023-03-19T10:08:39.600Z,14.27
2023-03-19T10:11:31.142Z,14.43
2023-03-19T10:14:32.552Z,14.58
2023-03-19T10:17:04.284Z,14.68
2023-03-19T10:19:52.012Z,14.84
2023-03-19T10:22:27.322Z,14.97
2023-03-19T10:24:56.405Z,15.10
2023-03-19T10:27:26.739Z,15.23
2023-03-19T10:29:54.297Z,15.34
2023-03-19T10:32:43.474Z,15.46
2023-03-19T10:35:22.259Z,15.51
2023-03-19T10:37:50.890Z,15.59
2023-03-19T10:40:30.373Z,15.62
2023-03-19T10:43:17.188Z,15.63
2023-03-19T10:45:44.209Z,15.62
2023-03-19T10:48:17.985Z,15.65
2023-03-19T10:51:05.445Z,15.69
2023-03-19T10:53:38.614Z,15.74
2023-03-19T10:56:23.047Z,15.84
2023-03-19T10:59:07.286Z,15.87
2023-03-19T11:01:40.611Z,15.90
2023-03-19T11:04:22.230Z,16.00
2023-03-19T11:07:02.190Z,16.10
2023-03-19T11:09:39.125Z,16.22
2023-03-19T11:12:08.842Z,16.31
2023-03-19T11:14:44.522Z,16.40
2023-03-19T11:17:40.318Z,16.54
2023-03-19T11:20:37.162Z,16.60
2023-03-19T11:23:16.504Z,16.69
2023-03-19T11:25:55.189Z,16.74
2023-03-19T11:28:26.757Z,16.84
2023-03-19T11:31:27.007Z,16.96
2023-03-19T11:34:34.397Z,17.13
2023-03-19T11:37:16.168Z,17.23
2023-03-19T11:40:07.193Z,17.38
2023-03-19T11:43:09.680Z,17.47
2023-03-19T11:45:54.548Z,17.55
2023-03-19T11:48:30.353Z,17.64
2023-03-19T11:51:06.597Z,17.71
2023-03-19T11:54:04.306Z,17.83
2023-03-19T11:56:47.564Z,17.93
2023-03-19T11:59:26.705Z,18.04
2023-03-19T12:02:09.342Z,18.16
2023-03-19T12:04:54.073Z,18.29
2023-03-19T12:07:45.003Z,18.44
2023-03-19T12:10:33.608Z,18.58
2023-03-19T12:13:25.608Z,18.75
2023-03-19T12:16:39.002Z,19.06
2023-03-19T12:19:50.619Z,19.64
2023-03-19T12:22:41.845Z,20.36
2023-03-19T12:25:46.382Z,21.26
2023-03-19T12:28:29.656Z,21.98
2023-03-19T12:31:23.163Z,22.64
2023-03-19T12:34:29.776Z,23.44
2023-03-19T12:37:35.509Z,24.14
2023-03-19T12:40:42.679Z,24.88
2023-03-19T12:43:42.151Z,25.37
2023-03-19T12:46:16.588Z,25.74
2023-03-19T12:49:08.151Z,26.09
2023-03-19T12:51:40.533Z,26.44
2023-03-19T12:54:27.248Z,26.87
2023-03-19T12:57:19.893Z,27.41
2023-03-19T13:00:17.929Z,27.85
2023-03-19T13:02:57.945Z,28.13
2023-03-19T13:05:34.577Z,28.30
2023-03-19T13:08:37.554Z,28.43
2023-03-19T13:11:17.411Z,28.51
2023-03-19T13:14:20.669Z,28.67
2023-03-19T13:17:07.643Z,28.97
2023-03-19T13:19:47.853Z,29.36
2023-03-19T13:22:27.764Z,29.74
2023-03-19T13:24:56.268Z,30.05
2023-03-19T13:27:33.225Z,30.29
2023-03-19T13:30:12.942Z,30.40
2023-03-19T13:33:05.423Z,30.39
2023-03-19T13:35:37.062Z,30.22
2023-03-19T13:38:42.498Z,30.01
2023-03-19T13:41:37.606Z,29.87
2023-03-19T13:44:22.825Z,29.69
2023-03-19T13:46:51.399Z,29.48
2023-03-19T13:49:35.176Z,29.27
2023-03-19T13:52:11.692Z,29.12
2023-03-19T13:54:41.390Z,28.96
2023-03-19T13:57:18.295Z,28.88
2023-03-19T13:59:49.848Z,28.87
2023-03-19T14:02:22.734Z,29.00
2023-03-19T14:04:59.208Z,29.21
2023-03-19T14:07:40.503Z,29.57
2023-03-19T14:10:27.253Z,29.90
2023-03-19T14:13:09.389Z,30.06
2023-03-19T14:15:41.720Z,30.03
2023-03-19T14:18:18.730Z,29.83
2023-03-19T14:20:58.488Z,29.60
2023-03-19T14:23:39.425Z,29.28
2023-03-19T14:26:24.433Z,28.88
2023-03-19T14:29:07.319Z,28.53
2023-03-19T14:31:50.244Z,28.14
2023-03-19T14:34:24.862Z,27.79
2023-03-19T14:37:25.624Z,27.54
2023-03-19T14:40:08.213Z,27.39
2023-03-19T14:42:47.570Z,27.21
2023-03-19T14:45:36.074Z,26.92
2023-03-19T14:48:15.160Z,26.62
2023-03-19T14:51:10.387Z,26.36
2023-03-19T14:53:56.406Z,26.12
2023-03-19T14:56:41.745Z,25.96
2023-03-19T14:59:13.699Z,25.83
2023-03-19T15:01:44.990Z,25.70
2023-03-19T15:04:15.516Z,25.60
2023-03-19T15:06:59.285Z,25.44
2023-03-19T15:09:32.493Z,25.32
2023-03-19T15:12:31.250Z,25.23
2023-03-19T15:15:18.101Z,25.06
2023-03-19T15:17:51.642Z,24.91
2023-03-19T15:20:26.527Z,24.81
2023-03-19T15:23:01.091Z,24.73
2023-03-19T15:25:28.528Z,24.68
2023-03-19T15:28:09.848Z,24.52
2023-03-19T15:30:52.347Z,24.34
2023-03-19T15:33:39.517Z,24.14
2023-03-19T15:36:31.721Z,23.89
2023-03-19T15:39:06.746Z,23.67
2023-03-19T15:41:41.653Z,23.47
2023-03-19T15:44:17.094Z,23.29
2023-03-19T15:46:45.761Z,23.10
2023-03-19T15:49:45.649Z,22.85
2023-03-19T15:52:16.982Z,22.59
2023-03-19T15:54:44.486Z,22.41
2023-03-19T15:57:15.298Z,22.19
2023-03-19T15:59:42.615Z,21.96
2023-03-19T16:02:22.148Z,21.66
2023-03-19T16:05:18.715Z,21.45
2023-03-19T16:07:44.419Z,21.20
2023-03-19T16:10:42.672Z,20.95
2023-03-19T16:13:32.185Z,20.70
2023-03-19T16:16:28.902Z,20.44
2023-03-19T16:18:57.993Z,20.22
2023-03-19T16:21:27.615Z,20.04
2023-03-19T16:24:00.528Z,19.83
2023-03-19T16:26:40.897Z,19.61
2023-03-19T16:29:27.899Z,19.39
2023-03-19T16:32:06.489Z,19.20
2023-03-19T16:34:42.437Z,18.99
2023-03-19T16:38:28.162Z,18.71
2023-03-19T16:41:33.782Z,18.43
2023-03-19T16:44:18.554Z,18.18
2023-03-19T16:46:45.971Z,17.97
2023-03-19T16:49:12.919Z,17.70
2023-03-19T16:51:40.176Z,17.52
2023-03-19T16:54:07.465Z,17.32
2023-03-19T16:56:34.524Z,17.15
2023-03-19T16:59:03.576Z,16.95
2023-03-19T17:01:30.886Z,16.78
2023-03-19T17:03:59.005Z,16.59
2023-03-19T17:06:29.443Z,16.41
2023-03-19T17:08:56.765Z,16.26
2023-03-19T17:11:35.865Z,16.07
2023-03-19T17:14:05.501Z,15.92
2023-03-19T17:16:33.410Z,15.77
2023-03-19T17:19:00.539Z,15.63
2023-03-19T17:21:33.486Z,15.45
2023-03-19T17:24:21.784Z,15.28
2023-03-19T17:26:48.904Z,15.18
2023-03-19T17:29:15.799Z,15.09
2023-03-19T17:31:43.303Z,14.98
2023-03-19T17:34:21.063Z,14.81
2023-03-19T17:37:00.466Z,14.72
2023-03-19T17:39:32.090Z,14.62
2023-03-19T17:41:59.721Z,14.54
2023-03-19T17:44:27.837Z,14.45
2023-03-19T17:46:56.004Z,14.40
2023-03-19T17:49:29.912Z,14.33
2023-03-19T17:51:57.327Z,14.28
2023-03-19T17:54:26.941Z,14.22
2023-03-19T17:56:55.484Z,14.19
2023-03-19T17:59:23.254Z,14.11
2023-03-19T18:01:51.984Z,14.08
2023-03-19T18:04:21.344Z,14.05
2023-03-19T18:06:55.340Z,14.08
2023-03-19T18:09:25.819Z,14.04
2023-03-19T18:11:53.839Z,14.08
2023-03-19T18:14:21.029Z,14.08
2023-03-19T18:16:48.434Z,14.08
2023-03-19T18:19:33.581Z,14.03
2023-03-19T18:22:00.888Z,14.02
2023-03-19T18:24:27.881Z,13.99
2023-03-19T18:26:54.915Z,13.97
2023-03-19T18:29:21.869Z,13.93
2023-03-19T18:31:50.380Z,13.90
2023-03-19T18:34:17.942Z,13.86
2023-03-19T18:36:45.268Z,13.80
2023-03-19T18:39:16.259Z,13.73
2023-03-19T18:41:43.689Z,13.67
2023-03-19T18:44:12.041Z,13.60
2023-03-19T18:46:40.538Z,13.54
2023-03-19T18:49:22.567Z,13.47
2023-03-19T18:52:01.722Z,13.44
2023-03-19T18:54:31.052Z,13.34
2023-03-19T18:57:02.198Z,13.32
2023-03-19T18:59:32.752Z,13.27
2023-03-19T19:02:25.045Z,13.23
2023-03-19T19:04:51.961Z,13.21
2023-03-19T19:07:18.874Z,13.19
2023-03-19T19:09:46.178Z,13.15
2023-03-19T19:12:18.649Z,13.12
2023-03-19T19:14:46.568Z,13.10
2023-03-19T19:17:24.500Z,13.07
2023-03-19T19:19:51.457Z,13.04
2023-03-19T19:22:19.453Z,12.97
2023-03-19T19:24:46.711Z,12.91
2023-03-19T19:27:25.997Z,12.85
2023-03-19T19:29:53.210Z,12.83
2023-03-19T19:32:26.255Z,12.74
2023-03-19T19:34:53.864Z,12.67
2023-03-19T19:37:23.338Z,12.59
2023-03-19T19:39:51.160Z,12.53
2023-03-19T19:42:21.736Z,12.41
2023-03-19T19:44:55.686Z,12.30
2023-03-19T19:47:22.786Z,12.25
2023-03-19T19:49:49.713Z,12.16
2023-03-19T19:52:19.168Z,12.13
2023-03-19T19:54:46.984Z,12.09
2023-03-19T19:57:24.427Z,12.04
2023-03-19T19:59:52.660Z,11.98
2023-03-19T20:02:26.038Z,11.90
2023-03-19T20:04:53.000Z,11.88
2023-03-19T20:07:20.505Z,11.83
2023-03-19T20:09:48.267Z,11.77
2023-03-19T20:12:26.251Z,11.66
2023-03-19T20:14:53.402Z,11.58
2023-03-19T20:17:21.199Z,11.49
2023-03-19T20:19:48.327Z,11.45
2023-03-19T20:22:15.467Z,11.39
2023-03-19T20:24:42.736Z,11.34
2023-03-19T20:27:20.871Z,11.28
2023-03-19T20:29:50.138Z,11.23
2023-03-19T20:32:32.955Z,11.25
2023-03-19T20:35:03.077Z,11.23
2023-03-19T20:37:30.773Z,11.20
2023-03-19T20:39:58.611Z,11.20
2023-03-19T20:42:28.405Z,11.16
2023-03-19T20:44:58.340Z,11.13
2023-03-19T20:47:25.928Z,11.10
2023-03-19T20:49:53.417Z,11.09
2023-03-19T20:52:20.781Z,11.06
2023-03-19T20:54:48.246Z,11.01
2023-03-19T20:57:18.316Z,10.99
2023-03-19T20:59:46.838Z,10.98
2023-03-19T21:02:19.950Z,10.91
2023-03-19T21:04:47.587Z,10.81
2023-03-19T21:07:33.423Z,10.77
2023-03-19T21:10:20.742Z,10.73
2023-03-19T21:12:47.740Z,10.70
2023-03-19T21:15:16.153Z,10.72
2023-03-19T21:17:44.194Z,10.75
2023-03-19T21:20:24.616Z,10.72
2023-03-19T21:22:56.816Z,10.69
2023-03-19T21:25:28.303Z,10.70
2023-03-19T21:28:00.953Z,10.66
2023-03-19T21:30:28.232Z,10.65
2023-03-19T21:32:56.889Z,10.62
2023-03-19T21:35:26.248Z,10.56
2023-03-19T21:37:53.727Z,10.57
2023-03-19T21:40:28.308Z,10.51
2023-03-19T21:43:00.462Z,10.51
2023-03-19T21:45:36.504Z,10.46
2023-03-19T21:48:25.162Z,10.46
2023-03-19T21:50:52.890Z,10.41
2023-03-19T21:53:21.174Z,10.45
2023-03-19T21:55:50.542Z,10.44
2023-03-19T21:58:42.306Z,10.44
2023-03-19T22:01:19.557Z,10.44
2023-03-19T22:03:46.681Z,10.46
2023-03-19T22:06:14.164Z,10.48
2023-03-19T22:08:44.415Z,10.51
2023-03-19T22:11:23.281Z,10.57
2023-03-19T22:13:50.290Z,10.56
2023-03-19T22:16:23.910Z,10.59
2023-03-19T22:18:52.686Z,10.64
2023-03-19T22:21:22.490Z,10.65
2023-03-19T22:23:51.454Z,10.68
2023-03-19T22:26:36.203Z,10.71
2023-03-19T22:29:25.241Z,10.77
2023-03-19T22:31:54.025Z,10.78
2023-03-19T22:34:25.980Z,10.85
2023-03-19T22:36:53.477Z,10.91
2023-03-19T22:39:20.392Z,10.91
2023-03-19T22:41:49.004Z,10.94
2023-03-19T22:44:28.720Z,10.98
2023-03-19T22:46:58.928Z,10.99
2023-03-19T22:49:26.485Z,10.99
2023-03-19T22:51:53.436Z,11.02
2023-03-19T22:54:20.392Z,11.04
2023-03-19T22:56:47.397Z,11.04
2023-03-19T22:59:14.490Z,11.04
2023-03-19T23:01:45.139Z,11.09
2023-03-19T23:04:24.739Z,11.10
2023-03-19T23:06:53.636Z,11.05
2023-03-19T23:09:27.000Z,11.06
2023-03-19T23:11:54.507Z,11.08
2023-03-19T23:14:29.753Z,11.05
2023-03-19T23:17:02.040Z,11.03
2023-03-19T23:19:35.518Z,11.05
2023-03-19T23:22:05.634Z,11.03
2023-03-19T23:24:33.505Z,11.00
2023-03-19T23:27:02.333Z,11.03
2023-03-19T23:29:36.585Z,11.01
2023-03-19T23:32:04.869Z,11.01
2023-03-19T23:34:35.358Z,11.00
2023-03-19T23:37:07.496Z,11.00
2023-03-19T23:39:34.670Z,10.98
2023-03-19T23:42:01.805Z,10.98
2023-03-19T23:44:29.626Z,11.02
2023-03-19T23:47:00.816Z,11.03
2023-03-19T23:49:32.261Z,11.03
2023-03-19T23:51:59.782Z,11.02
2023-03-19T23:54:34.680Z,11.02
2023-03-19T23:57:06.595Z,11.01
2023-03-19T23:59:40.638Z,11.03
